createdAt,value
2023-04-20T00:00:30.910Z,2.83
2023-04-20T00:05:32.423Z,5.68
2023-04-20T00:10:34.201Z,3.10
2023-04-20T00:15:35.760Z,5.10
2023-04-20T00:20:37.423Z,4.25
2023-04-20T00:25:38.757Z,10.05
2023-04-20T00:30:40.100Z,4.53
2023-04-20T00:35:41.470Z,4.32
2023-04-20T00:40:44.170Z,3.25
2023-04-20T00:45:48.890Z,5.57
2023-04-20T00:50:50.989Z,4.78
2023-04-20T00:55:52.787Z,7.03
2023-04-20T01:00:54.217Z,6.53
2023-04-20T01:05:55.693Z,6.63
2023-04-20T01:10:57.714Z,5.55
2023-04-20T01:16:00.470Z,5.20
2023-04-20T01:21:01.917Z,6.00
2023-04-20T01:26:08.129Z,6.38
2023-04-20T01:31:11.272Z,4.05
2023-04-20T01:36:12.976Z,8.02
2023-04-20T01:41:14.430Z,7.38
2023-04-20T01:46:15.844Z,4.00
2023-04-20T01:51:17.200Z,5.70
2023-04-20T01:56:18.552Z,3.22
2023-04-20T02:01:20.125Z,12.18
2023-04-20T02:06:21.754Z,5.65
2023-04-20T02:11:23.125Z,9.73
2023-04-20T02:16:24.705Z,5.22
2023-04-20T02:21:26.177Z,4.97
2023-04-20T02:26:27.537Z,7.50
2023-04-20T02:31:28.982Z,3.63
2023-04-20T02:36:30.821Z,3.83
2023-04-20T02:41:32.576Z,3.50
2023-04-20T02:46:33.984Z,3.47
2023-04-20T02:51:35.489Z,3.13
2023-04-20T02:56:36.974Z,2.83
2023-04-20T03:01:38.411Z,3.40
2023-04-20T03:06:40.474Z,3.13
2023-04-20T03:11:41.879Z,3.90
2023-04-20T03:16:43.540Z,5.38
2023-04-20T03:21:45.548Z,4.50
2023-04-20T03:26:46.859Z,4.78
2023-04-20T03:31:48.318Z,5.68
2023-04-20T03:36:50.096Z,3.30
2023-04-20T03:41:51.468Z,4.57
2023-04-20T03:46:52.818Z,3.88
2023-04-20T03:51:54.133Z,3.78
2023-04-20T03:56:55.454Z,6.47
2023-04-20T04:01:57.064Z,5.53
2023-04-20T04:06:58.558Z,4.90
2023-04-20T04:11:59.892Z,4.25
2023-04-20T04:17:01.366Z,6.20
2023-04-20T04:22:02.700Z,5.03
2023-04-20T04:27:06.036Z,4.85
2023-04-20T04:32:07.972Z,5.95
2023-04-20T04:37:09.314Z,7.07
2023-04-20T04:42:10.830Z,7.95
2023-04-20T04:47:12.169Z,5.13
2023-04-20T04:52:13.570Z,7.75
2023-04-20T04:57:14.958Z,9.60
2023-04-20T05:02:16.779Z,6.65
2023-04-20T05:07:18.423Z,9.25
2023-04-20T05:12:19.818Z,6.65
2023-04-20T05:17:21.360Z,5.93
2023-04-20T05:22:22.771Z,7.45
2023-04-20T05:27:24.186Z,5.90
2023-04-20T05:32:25.554Z,7.10
2023-04-20T05:37:27.416Z,8.65
2023-04-20T05:42:28.797Z,6.40
2023-04-20T05:47:30.410Z,5.85
2023-04-20T05:52:31.785Z,5.40
2023-04-20T05:57:33.153Z,5.60
2023-04-20T06:02:34.612Z,8.98
2023-04-20T06:07:36.599Z,5.88
2023-04-20T06:12:38.101Z,5.80
2023-04-20T06:17:40.680Z,8.10
2023-04-20T06:22:44.459Z,8.15
2023-04-20T06:27:46.529Z,5.55
2023-04-20T06:32:47.982Z,6.07
2023-04-20T06:37:49.685Z,6.68
2023-04-20T06:42:51.025Z,7.93
2023-04-20T06:47:52.412Z,5.20
2023-04-20T06:52:53.872Z,4.88
2023-04-20T06:57:55.211Z,3.50
2023-04-20T07:02:57.030Z,3.45
2023-04-20T07:07:58.423Z,4.93
2023-04-20T07:12:59.817Z,4.80
2023-04-20T07:18:01.182Z,4.70
2023-04-20T07:23:02.664Z,3.40
2023-04-20T07:28:04.028Z,4.30
2023-04-20T07:33:05.705Z,4.40
2023-04-20T07:38:07.135Z,3.90
2023-04-20T07:43:08.503Z,4.93
2023-04-20T07:48:09.898Z,4.75
2023-04-20T07:53:11.243Z,6.32
2023-04-20T07:58:14.289Z,2.95
2023-04-20T08:03:15.810Z,3.92
2023-04-20T08:08:17.856Z,3.85
2023-04-20T08:13:19.208Z,3.22
2023-04-20T08:18:21.545Z,4.47
2023-04-20T08:23:27.689Z,4.43
2023-04-20T08:28:33.318Z,3.35
2023-04-20T08:33:35.988Z,3.08
2023-04-20T08:38:37.419Z,4.40
2023-04-20T08:43:39.461Z,4.03
2023-04-20T08:48:41.863Z,5.40
2023-04-20T08:53:43.316Z,3.15
2023-04-20T08:58:44.672Z,3.75
2023-04-20T09:03:46.176Z,3.67
2023-04-20T09:08:47.576Z,3.33
2023-04-20T09:14:06.818Z,4.78
2023-04-20T09:19:09.388Z,5.38
2023-04-20T09:24:11.282Z,5.47
2023-04-20T09:29:21.564Z,3.92
2023-04-20T09:34:23.807Z,5.60
2023-04-20T09:39:26.699Z,3.85
2023-04-20T09:44:28.165Z,5.78
2023-04-20T09:49:30.115Z,4.18
2023-04-20T09:54:31.679Z,5.20
2023-04-20T09:59:33.389Z,9.43
2023-04-20T10:04:34.942Z,4.53
2023-04-20T10:09:37.707Z,5.45
2023-04-20T10:14:39.130Z,5.18
2023-04-20T10:19:42.381Z,5.18
2023-04-20T10:24:44.070Z,3.83
2023-04-20T10:29:46.018Z,3.55
2023-04-20T10:34:47.435Z,6.75
2023-04-20T10:39:48.835Z,6.22
2023-04-20T10:44:51.240Z,7.38
2023-04-20T10:49:52.990Z,7.40
2023-04-20T10:54:54.361Z,4.82
2023-04-20T10:59:55.836Z,4.45
2023-04-20T11:05:01.017Z,6.53
2023-04-20T11:10:03.960Z,7.15
2023-04-20T11:15:06.247Z,5.13
2023-04-20T11:20:13.199Z,4.78
2023-04-20T11:25:14.606Z,6.80
2023-04-20T11:30:16.020Z,5.82
2023-04-20T11:35:17.493Z,6.53
2023-04-20T11:40:18.863Z,5.18
2023-04-20T11:45:20.213Z,3.40
2023-04-20T11:50:22.701Z,5.80
2023-04-20T11:55:24.038Z,3.88
2023-04-20T12:00:25.816Z,3.92
2023-04-20T12:05:28.176Z,4.18
2023-04-20T12:10:29.601Z,3.50
2023-04-20T12:15:30.985Z,3.85
2023-04-20T12:20:32.489Z,4.43
2023-04-20T12:25:34.269Z,2.78
2023-04-20T12:30:35.689Z,2.92
2023-04-20T12:35:37.246Z,4.18
2023-04-20T12:40:38.728Z,2.45
2023-04-20T12:45:40.076Z,4.13
2023-04-20T12:50:42.186Z,2.10
2023-04-20T12:55:43.593Z,2.95
2023-04-20T13:00:45.122Z,3.38
2023-04-20T13:05:46.743Z,4.72
2023-04-20T13:10:48.265Z,2.90
2023-04-20T13:15:49.714Z,2.30
2023-04-20T13:20:51.124Z,3.03
2023-04-20T13:25:52.577Z,2.97
2023-04-20T13:30:55.369Z,2.22
2023-04-20T13:35:56.753Z,4.28
2023-04-20T13:40:58.087Z,2.72
2023-04-20T13:45:59.477Z,3.30
2023-04-20T13:51:00.887Z,3.40
2023-04-20T13:56:02.359Z,2.40
2023-04-20T14:01:08.605Z,3.10
2023-04-20T14:06:10.353Z,2.38
2023-04-20T14:11:11.742Z,4.72
2023-04-20T14:16:16.721Z,5.70
2023-04-20T14:21:18.181Z,2.72
2023-04-20T14:26:20.486Z,2.53
2023-04-20T14:31:22.867Z,3.63
2023-04-20T14:36:24.368Z,3.63
2023-04-20T14:41:25.762Z,11.50
2023-04-20T14:46:27.210Z,3.53
2023-04-20T14:51:28.637Z,4.35
2023-04-20T14:56:30.048Z,3.50
2023-04-20T15:01:31.441Z,4.50
2023-04-20T15:06:34.553Z,2.97
2023-04-20T15:11:35.957Z,6.82
2023-04-20T15:16:37.313Z,7.78
2023-04-20T15:21:38.674Z,5.20
2023-04-20T15:26:40.156Z,6.72
2023-04-20T15:31:43.314Z,9.05
2023-04-20T15:36:44.839Z,3.97
2023-04-20T15:41:46.282Z,3.75
2023-04-20T15:46:47.662Z,5.13
2023-04-20T15:51:49.240Z,3.80
2023-04-20T15:56:51.049Z,3.25
2023-04-20T16:01:53.262Z,6.10
2023-04-20T16:06:55.046Z,4.00
2023-04-20T16:11:56.436Z,4.97
2023-04-20T16:17:02.320Z,4.20
2023-04-20T16:22:03.719Z,5.72
2023-04-20T16:27:05.394Z,5.43
2023-04-20T16:32:06.892Z,6.68
2023-04-20T16:37:08.279Z,6.18
2023-04-20T16:42:09.836Z,7.70
2023-04-20T16:47:11.360Z,8.90
2023-04-20T16:52:13.254Z,7.15
2023-04-20T16:57:14.951Z,7.40
2023-04-20T17:02:16.456Z,8.40
2023-04-20T17:07:17.972Z,7.90
2023-04-20T17:12:19.360Z,8.23
2023-04-20T17:17:20.713Z,12.40
2023-04-20T17:22:22.309Z,9.20
2023-04-20T17:27:23.667Z,12.00
2023-04-20T17:32:25.162Z,10.50
2023-04-20T17:37:26.916Z,11.75
2023-04-20T17:42:28.256Z,12.50
2023-04-20T17:47:32.460Z,13.93
2023-04-20T17:52:34.010Z,12.77
2023-04-20T17:57:35.583Z,14.68
2023-04-20T18:02:37.805Z,15.48
2023-04-20T18:07:39.193Z,16.20
2023-04-20T18:12:40.535Z,15.15
2023-04-20T18:17:42.440Z,18.80
2023-04-20T18:22:43.809Z,21.17
2023-04-20T18:27:45.768Z,17.55
2023-04-20T18:32:47.124Z,16.13
2023-04-20T18:37:48.610Z,17.27
2023-04-20T18:42:49.947Z,22.10
2023-04-20T18:47:51.362Z,23.48
2023-04-20T18:52:52.708Z,22.20
2023-04-20T18:57:54.051Z,24.88
2023-04-20T19:02:55.593Z,24.48
2023-04-20T19:07:57.086Z,24.25
2023-04-20T19:12:58.421Z,22.55
2023-04-20T19:17:59.933Z,22.95
2023-04-20T19:23:01.322Z,24.33
2023-04-20T19:28:02.824Z,23.40
2023-04-20T19:33:05.068Z,25.25
2023-04-20T19:38:06.571Z,24.70
2023-04-20T19:43:07.881Z,27.67
2023-04-20T19:48:09.352Z,30.52
2023-04-20T19:53:10.774Z,29.48
2023-04-20T19:58:13.299Z,28.55
2023-04-20T20:03:16.095Z,26.85
2023-04-20T20:08:17.582Z,38.03
2023-04-20T20:13:19.043Z,36.22
2023-04-20T20:18:20.671Z,33.90
2023-04-20T20:23:22.010Z,41.00
2023-04-20T20:28:23.370Z,48.63
2023-04-20T20:33:24.751Z,40.97
2023-04-20T20:38:26.077Z,39.00
2023-04-20T20:43:28.436Z,39.72
2023-04-20T20:48:29.836Z,45.72
2023-04-20T20:53:31.388Z,48.17
2023-04-20T20:58:32.734Z,49.10
2023-04-20T21:03:34.275Z,52.30
2023-04-20T21:08:36.464Z,54.08
2023-04-20T21:13:37.806Z,50.40
2023-04-20T21:18:39.198Z,51.58
2023-04-20T21:23:40.544Z,58.28
2023-04-20T21:28:42.200Z,52.80
2023-04-20T21:33:43.939Z,49.78
2023-04-20T21:38:45.433Z,49.17
2023-04-20T21:43:47.057Z,50.85
2023-04-20T21:48:48.378Z,48.35
2023-04-20T21:53:49.702Z,47.08
2023-04-20T21:58:51.025Z,55.97
2023-04-20T22:03:52.490Z,55.17
2023-04-20T22:08:54.073Z,51.05
2023-04-20T22:13:57.170Z,49.33
2023-04-20T22:18:58.512Z,52.90
2023-04-20T22:23:59.898Z,47.78
2023-04-20T22:29:01.428Z,50.97
2023-04-20T22:34:02.779Z,49.47
2023-04-20T22:39:04.471Z,47.55
2023-04-20T22:44:06.145Z,54.40
2023-04-20T22:49:08.688Z,50.08
2023-04-20T22:54:10.113Z,47.67
2023-04-20T22:59:11.440Z,48.47
2023-04-20T23:04:12.940Z,48.92
2023-04-20T23:09:20.297Z,50.53
2023-04-20T23:14:22.453Z,51.38
2023-04-20T23:19:25.620Z,51.40
2023-04-20T23:24:26.953Z,51.58
2023-04-20T23:29:28.292Z,48.97
2023-04-20T23:34:30.137Z,50.67
2023-04-20T23:39:36.228Z,56.85
2023-04-20T23:44:37.546Z,52.05
2023-04-20T23:49:38.910Z,56.55
2023-04-20T23:54:40.338Z,54.35
2023-04-20T23:59:41.852Z,52.22
